Time;durP1;ratioP1;P1;durP2;ratioP2;P2;SDS_P1;SDS_P2;PMS_P1;PMS_P2;Temp;Humidity;BMP_temperature;BMP_pressure;BME280_temperature;BME280_humidity;BME280_pressure;Samples;Min_cycle;Max_cycle;Signal;HPM_P1;HPM_P2
2022/12/28 00:00:14;;;;;;;68.28;12.20;;;;;;;;;;5033753;28;20563;-76
2022/12/28 00:02:41;;;;;;;70.28;13.80;;;;;;;;;;5034111;28;20213;-76
2022/12/28 00:05:09;;;;;;;87.25;21.50;;;;;;;;;;5034069;28;20581;-76
2022/12/28 00:07:36;;;;;;;94.65;23.88;;;;;;;;;;5033937;28;20244;-76
2022/12/28 00:10:05;;;;;;;83.60;18.80;;;;;;;;;;5033072;28;20250;-76
2022/12/28 00:12:32;;;;;;;77.60;16.65;;;;;;;;;;5034000;28;20244;-76
2022/12/28 00:14:59;;;;;;;76.50;17.02;;;;;;;;;;5033740;28;20204;-76
2022/12/28 00:17:27;;;;;;;77.43;15.40;;;;;;;;;;5034031;28;20297;-76
2022/12/28 00:19:54;;;;;;;73.40;12.43;;;;;;;;;;5032575;28;20746;-76
2022/12/28 00:22:21;;;;;;;78.07;16.27;;;;;;;;;;5033941;28;20227;-76
2022/12/28 00:24:48;;;;;;;78.93;15.75;;;;;;;;;;5033524;28;20218;-76
2022/12/28 00:27:16;;;;;;;72.00;14.07;;;;;;;;;;5033537;28;20210;-76
2022/12/28 00:29:43;;;;;;;69.85;13.75;;;;;;;;;;5032905;28;20588;-76
2022/12/28 00:32:10;;;;;;;70.18;13.05;;;;;;;;;;5033540;28;20223;-76
2022/12/28 00:34:37;;;;;;;70.97;13.80;;;;;;;;;;5033285;28;20203;-76
2022/12/28 00:37:05;;;;;;;71.72;13.98;;;;;;;;;;5032249;28;20589;-76
2022/12/28 00:39:32;;;;;;;71.03;12.35;;;;;;;;;;5032645;28;20204;-76
2022/12/28 00:41:59;;;;;;;69.50;12.65;;;;;;;;;;5032811;28;20749;-76
2022/12/28 00:44:27;;;;;;;70.60;11.70;;;;;;;;;;5033254;28;20207;-76
2022/12/28 00:46:54;;;;;;;69.80;11.70;;;;;;;;;;5033283;28;20597;-76
2022/12/28 00:49:21;;;;;;;72.65;13.13;;;;;;;;;;5032280;28;20236;-76
2022/12/28 00:51:48;;;;;;;67.75;10.93;;;;;;;;;;5032022;28;20242;-76
2022/12/28 00:54:16;;;;;;;66.60;11.57;;;;;;;;;;5033265;28;20208;-76
2022/12/28 00:56:43;;;;;;;71.55;11.88;;;;;;;;;;5032432;28;20218;-76
2022/12/28 00:59:10;;;;;;;67.95;12.60;;;;;;;;;;5031647;28;20213;-76
2022/12/28 01:01:38;;;;;;;66.88;11.65;;;;;;;;;;5032504;28;20597;-76
2022/12/28 01:04:06;;;;;;;72.00;11.40;;;;;;;;;;5032623;28;20674;-76
2022/12/28 01:06:33;;;;;;;67.80;12.15;;;;;;;;;;5033018;28;20216;-76
2022/12/28 01:09:00;;;;;;;67.70;11.48;;;;;;;;;;5031912;28;20223;-76
2022/12/28 01:11:28;;;;;;;66.97;10.70;;;;;;;;;;5032330;28;20245;-76
2022/12/28 01:13:56;;;;;;;65.75;10.50;;;;;;;;;;5032749;28;20214;-76
2022/12/28 01:16:24;;;;;;;70.13;12.05;;;;;;;;;;5032563;28;20217;-76
2022/12/28 01:18:53;;;;;;;65.90;11.07;;;;;;;;;;5032143;28;20213;-76
2022/12/28 01:21:21;;;;;;;68.97;11.38;;;;;;;;;;5032679;28;20232;-76
2022/12/28 01:23:49;;;;;;;66.45;10.38;;;;;;;;;;5032956;28;20213;-76
2022/12/28 01:26:16;;;;;;;66.22;10.88;;;;;;;;;;5032413;28;20214;-76
2022/12/28 01:28:44;;;;;;;69.93;11.27;;;;;;;;;;5032031;28;20231;-76
2022/12/28 01:31:11;;;;;;;66.13;9.80;;;;;;;;;;5032729;28;20249;-76
2022/12/28 01:33:39;;;;;;;67.47;10.23;;;;;;;;;;5032866;28;20675;-76
2022/12/28 01:36:08;;;;;;;70.97;11.15;;;;;;;;;;5032965;28;20228;-76
2022/12/28 01:38:35;;;;;;;67.28;10.25;;;;;;;;;;5031681;28;20563;-76
2022/12/28 01:41:02;;;;;;;62.83;7.65;;;;;;;;;;5032283;28;20250;-76
2022/12/28 01:43:40;;;;;;;64.93;9.52;;;;;;;;;;5032816;28;20215;-76
2022/12/28 01:46:09;;;;;;;65.00;7.85;;;;;;;;;;5032483;28;20203;-76
2022/12/28 01:48:37;;;;;;;64.90;8.77;;;;;;;;;;5031126;28;20231;-76
2022/12/28 01:51:04;;;;;;;67.90;8.85;;;;;;;;;;5032318;28;20603;-76
2022/12/28 01:53:33;;;;;;;64.53;8.15;;;;;;;;;;5031671;28;20207;-76
2022/12/28 01:56:00;;;;;;;63.67;8.40;;;;;;;;;;5031838;28;20669;-76
2022/12/28 01:58:29;;;;;;;62.17;7.10;;;;;;;;;;5032435;28;20561;-76
2022/12/28 02:00:57;;;;;;;63.63;7.97;;;;;;;;;;5031574;28;20321;-76
2022/12/28 02:03:26;;;;;;;61.92;7.82;;;;;;;;;;5032667;28;20205;-76
2022/12/28 02:05:54;;;;;;;64.68;7.93;;;;;;;;;;5032501;28;20218;-76
2022/12/28 02:08:24;;;;;;;66.03;8.00;;;;;;;;;;5031789;28;20224;-76
2022/12/28 02:10:53;;;;;;;63.63;7.80;;;;;;;;;;5030629;28;20724;-76
2022/12/28 02:13:21;;;;;;;61.45;6.72;;;;;;;;;;5031592;28;20289;-76
2022/12/28 02:15:49;;;;;;;63.53;7.80;;;;;;;;;;5032181;28;20212;-76
2022/12/28 02:18:17;;;;;;;66.65;8.45;;;;;;;;;;5032676;28;20213;-76
2022/12/28 02:20:49;;;;;;;62.25;7.13;;;;;;;;;;5030464;28;20233;-75
2022/12/28 02:23:26;;;;;;;64.25;7.53;;;;;;;;;;5032997;28;20205;-76
2022/12/28 02:26:06;;;;;;;63.05;7.63;;;;;;;;;;5033037;28;20213;-76
2022/12/28 02:28:57;;;;;;;63.60;6.50;;;;;;;;;;5031915;28;20228;-76
2022/12/28 02:31:29;;;;;;;63.42;7.38;;;;;;;;;;5012409;28;20227;-76
2022/12/28 02:33:59;;;;;;;65.25;6.82;;;;;;;;;;5032402;28;20208;-76
2022/12/28 02:36:28;;;;;;;62.22;6.82;;;;;;;;;;5032141;28;20216;-76
2022/12/28 02:38:58;;;;;;;62.90;6.20;;;;;;;;;;5031140;28;20201;-76
2022/12/28 02:41:26;;;;;;;65.13;6.07;;;;;;;;;;5031705;28;20225;-76
2022/12/28 02:43:54;;;;;;;61.45;6.28;;;;;;;;;;5031783;28;20219;-76
2022/12/28 02:52:08;;;;;;;60.45;5.80;;;;;;;;;;5031547;28;20337;-76
2022/12/28 02:57:41;;;;;;;67.25;6.88;;;;;;;;;;5031918;28;20773;-76
2022/12/28 03:00:09;;;;;;;61.50;6.20;;;;;;;;;;5032282;28;20698;-76
2022/12/28 03:02:45;;;;;;;65.25;6.35;;;;;;;;;;5035213;28;20230;-76
2022/12/28 03:05:16;;;;;;;64.85;5.55;;;;;;;;;;5035478;28;20208;-76
2022/12/28 03:10:36;;;;;;;61.67;6.22;;;;;;;;;;5034845;28;20699;-76
2022/12/28 03:13:05;;;;;;;63.35;5.90;;;;;;;;;;5035756;28;20228;-76
2022/12/28 03:15:34;;;;;;;62.58;6.85;;;;;;;;;;5035035;28;20216;-76
2022/12/28 03:32:11;;;;;;;63.17;6.15;;;;;;;;;;4981466;28;20231;-76
2022/12/28 03:34:39;;;;;;;61.38;6.30;;;;;;;;;;5034996;28;20216;-76
2022/12/28 03:37:12;;;;;;;60.65;5.68;;;;;;;;;;5034687;28;20219;-76
2022/12/28 03:39:42;;;;;;;60.83;6.60;;;;;;;;;;5033847;28;20206;-76
2022/12/28 03:44:58;;;;;;;62.05;6.05;;;;;;;;;;5034745;28;20289;-76
2022/12/28 03:47:26;;;;;;;62.03;6.13;;;;;;;;;;5034634;28;20232;-76
2022/12/28 03:49:53;;;;;;;60.50;5.45;;;;;;;;;;5033867;28;20260;-76
2022/12/28 03:52:22;;;;;;;60.65;5.32;;;;;;;;;;5034040;28;20229;-76
2022/12/28 03:54:49;;;;;;;61.10;5.65;;;;;;;;;;5034571;28;20213;-76
2022/12/28 03:57:18;;;;;;;59.63;5.40;;;;;;;;;;5034388;28;20211;-76
2022/12/28 03:59:45;;;;;;;64.05;5.60;;;;;;;;;;5033515;28;20675;-76
2022/12/28 04:02:12;;;;;;;61.10;5.45;;;;;;;;;;5034363;28;20230;-76
2022/12/28 04:04:39;;;;;;;61.70;5.47;;;;;;;;;;5034362;28;20292;-76
2022/12/28 04:07:06;;;;;;;61.67;5.35;;;;;;;;;;5033971;28;20233;-76
2022/12/28 04:09:35;;;;;;;64.60;5.22;;;;;;;;;;5033653;28;20237;-76
2022/12/28 04:12:02;;;;;;;59.75;4.90;;;;;;;;;;5033975;28;20241;-76
2022/12/28 04:14:29;;;;;;;60.20;5.55;;;;;;;;;;5034123;28;20209;-76
2022/12/28 04:16:56;;;;;;;60.53;5.70;;;;;;;;;;5034099;28;20206;-76
2022/12/28 04:19:23;;;;;;;64.03;6.30;;;;;;;;;;5033181;28;20576;-76
2022/12/28 04:21:50;;;;;;;61.35;5.22;;;;;;;;;;5033973;28;20229;-76
2022/12/28 04:24:17;;;;;;;60.65;5.43;;;;;;;;;;5033990;28;20221;-76
2022/12/28 04:26:46;;;;;;;61.20;6.00;;;;;;;;;;5033917;28;20220;-76
2022/12/28 04:29:13;;;;;;;61.00;5.70;;;;;;;;;;5032963;28;20713;-76
2022/12/28 04:31:40;;;;;;;60.63;5.50;;;;;;;;;;5033720;28;20234;-76
2022/12/28 04:34:07;;;;;;;61.17;5.82;;;;;;;;;;5033544;28;20212;-76
2022/12/28 04:36:34;;;;;;;59.95;4.93;;;;;;;;;;5034024;28;20216;-76
2022/12/28 04:39:01;;;;;;;60.40;5.35;;;;;;;;;;5032688;28;20207;-76
2022/12/28 04:41:28;;;;;;;60.10;4.97;;;;;;;;;;5033598;28;20581;-76
2022/12/28 04:43:57;;;;;;;60.45;4.95;;;;;;;;;;5033451;28;20212;-76
2022/12/28 04:46:24;;;;;;;62.90;4.70;;;;;;;;;;5033518;28;20220;-76
2022/12/28 04:48:52;;;;;;;59.78;4.45;;;;;;;;;;5032423;28;20229;-76
2022/12/28 04:51:20;;;;;;;60.13;4.70;;;;;;;;;;5033548;28;20235;-76
2022/12/28 04:53:47;;;;;;;60.05;4.70;;;;;;;;;;5033475;28;20604;-76
2022/12/28 04:56:15;;;;;;;60.85;4.40;;;;;;;;;;5033314;28;20603;-76
2022/12/28 04:58:42;;;;;;;58.90;4.50;;;;;;;;;;5032567;28;20210;-76
2022/12/28 05:01:11;;;;;;;62.17;4.32;;;;;;;;;;5033103;28;20225;-76
2022/12/28 05:03:39;;;;;;;59.42;4.40;;;;;;;;;;5033299;28;20530;-76
2022/12/28 05:06:07;;;;;;;63.10;4.50;;;;;;;;;;5033517;28;20221;-76
2022/12/28 05:08:35;;;;;;;58.75;3.83;;;;;;;;;;5032324;28;20221;-76
2022/12/28 05:11:02;;;;;;;60.67;4.43;;;;;;;;;;5032655;28;20222;-76
2022/12/28 05:13:30;;;;;;;59.65;3.83;;;;;;;;;;5032940;28;20949;-76
2022/12/28 05:16:01;;;;;;;59.25;3.95;;;;;;;;;;5032875;28;20213;-76
2022/12/28 05:18:29;;;;;;;58.83;3.90;;;;;;;;;;5032583;28;20206;-76
2022/12/28 05:20:59;;;;;;;58.20;3.50;;;;;;;;;;5032819;28;20309;-76
2022/12/28 05:23:26;;;;;;;60.50;3.85;;;;;;;;;;5032263;28;20683;-76
2022/12/28 05:25:53;;;;;;;59.08;3.55;;;;;;;;;;5033021;28;20210;-76
2022/12/28 05:28:20;;;;;;;58.97;3.70;;;;;;;;;;5032467;28;20238;-76
2022/12/28 05:30:47;;;;;;;59.38;3.72;;;;;;;;;;5032054;28;20873;-76
2022/12/28 05:33:15;;;;;;;58.40;3.00;;;;;;;;;;5032622;28;20212;-76
2022/12/28 05:35:43;;;;;;;59.15;3.80;;;;;;;;;;5032647;28;20521;-76
2022/12/28 05:38:10;;;;;;;58.73;3.60;;;;;;;;;;5032314;28;20207;-76
2022/12/28 05:40:37;;;;;;;59.40;3.67;;;;;;;;;;5031551;28;20844;-76
2022/12/28 05:43:04;;;;;;;58.13;3.15;;;;;;;;;;5032778;28;20449;-76
2022/12/28 05:45:31;;;;;;;58.33;3.20;;;;;;;;;;5032437;28;20686;-76
2022/12/28 05:47:58;;;;;;;58.87;3.33;;;;;;;;;;5032596;28;20206;-76
2022/12/28 05:50:26;;;;;;;57.22;3.13;;;;;;;;;;5031930;28;20489;-76
2022/12/28 05:52:54;;;;;;;59.80;3.60;;;;;;;;;;5032506;28;20671;-76
2022/12/28 05:55:21;;;;;;;57.83;3.30;;;;;;;;;;5032155;28;20452;-76
2022/12/28 05:57:48;;;;;;;59.50;3.57;;;;;;;;;;5032524;28;20459;-76
2022/12/28 06:00:16;;;;;;;58.30;3.30;;;;;;;;;;5031500;28;20972;-77
2022/12/28 06:02:43;;;;;;;59.90;3.27;;;;;;;;;;5032321;28;20453;-76
2022/12/28 06:05:10;;;;;;;58.87;3.20;;;;;;;;;;5032257;28;20476;-76
2022/12/28 06:07:37;;;;;;;59.37;3.47;;;;;;;;;;5032059;28;20449;-76
2022/12/28 06:10:06;;;;;;;59.17;3.27;;;;;;;;;;5031563;28;20828;-76
2022/12/28 06:12:33;;;;;;;57.80;3.13;;;;;;;;;;5031903;28;20484;-76
2022/12/28 06:15:00;;;;;;;57.70;2.80;;;;;;;;;;5032407;28;20461;-76
2022/12/28 06:17:27;;;;;;;59.13;3.00;;;;;;;;;;5032254;28;20454;-76
2022/12/28 06:19:55;;;;;;;59.03;3.90;;;;;;;;;;5031263;28;20459;-76
2022/12/28 06:22:22;;;;;;;58.13;2.87;;;;;;;;;;5032045;28;20475;-76
2022/12/28 06:24:49;;;;;;;58.87;3.03;;;;;;;;;;5032220;28;20446;-76
2022/12/28 06:27:17;;;;;;;58.17;3.00;;;;;;;;;;5031953;28;20457;-76
2022/12/28 06:29:44;;;;;;;58.37;3.07;;;;;;;;;;5031344;28;20491;-76
2022/12/28 06:32:11;;;;;;;58.00;3.20;;;;;;;;;;5031755;28;20469;-76
2022/12/28 06:34:38;;;;;;;58.97;3.03;;;;;;;;;;5033027;28;20449;-76
2022/12/28 06:37:05;;;;;;;60.23;3.30;;;;;;;;;;5036217;28;20460;-76
2022/12/28 06:39:33;;;;;;;58.97;3.27;;;;;;;;;;5035700;28;20452;-76
2022/12/28 06:42:00;;;;;;;58.47;3.30;;;;;;;;;;5036332;28;20469;-76
2022/12/28 06:44:28;;;;;;;59.07;3.10;;;;;;;;;;5036359;28;20966;-76
2022/12/28 06:46:55;;;;;;;60.40;3.40;;;;;;;;;;5036114;28;20455;-76
2022/12/28 06:49:22;;;;;;;59.50;3.00;;;;;;;;;;5034941;28;20490;-76
2022/12/28 06:51:49;;;;;;;60.97;3.90;;;;;;;;;;5035686;28;20465;-76
2022/12/28 06:54:16;;;;;;;62.70;3.57;;;;;;;;;;5035833;28;20448;-76
2022/12/28 06:56:44;;;;;;;59.07;3.40;;;;;;;;;;5035623;28;20453;-76
2022/12/28 06:59:11;;;;;;;61.20;3.00;;;;;;;;;;5034764;28;20459;-76
2022/12/28 07:01:43;;;;;;;58.27;3.37;;;;;;;;;;5035697;28;20889;-76
2022/12/28 07:04:10;;;;;;;58.07;3.13;;;;;;;;;;5035345;28;20458;-76
2022/12/28 07:06:39;;;;;;;58.40;3.03;;;;;;;;;;5035627;28;20460;-76
2022/12/28 07:09:07;;;;;;;59.73;3.40;;;;;;;;;;5034600;28;20493;-76
2022/12/28 07:11:35;;;;;;;58.60;3.20;;;;;;;;;;5035347;28;20481;-77
2022/12/28 07:14:02;;;;;;;58.57;3.07;;;;;;;;;;5035084;28;20453;-76
2022/12/28 07:16:30;;;;;;;59.10;3.30;;;;;;;;;;5035254;28;20453;-76
2022/12/28 07:18:59;;;;;;;58.30;3.20;;;;;;;;;;5033955;28;20480;-76
2022/12/28 07:21:27;;;;;;;58.97;3.60;;;;;;;;;;5034853;28;20468;-76
2022/12/28 07:23:54;;;;;;;58.10;2.93;;;;;;;;;;5034821;28;20449;-76
2022/12/28 07:26:23;;;;;;;59.20;3.00;;;;;;;;;;5034788;28;20874;-76
2022/12/28 07:28:51;;;;;;;59.07;3.80;;;;;;;;;;5033922;28;20453;-76
2022/12/28 07:31:19;;;;;;;57.80;3.23;;;;;;;;;;5034356;28;20489;-76
2022/12/28 07:33:46;;;;;;;60.43;3.40;;;;;;;;;;5034821;28;20451;-76
2022/12/28 07:36:17;;;;;;;58.50;3.57;;;;;;;;;;5034507;28;20464;-76
2022/12/28 07:38:44;;;;;;;70.53;4.37;;;;;;;;;;5033825;28;20448;-76
2022/12/28 07:41:12;;;;;;;61.87;3.60;;;;;;;;;;5034546;28;20812;-76
2022/12/28 07:43:40;;;;;;;58.17;3.30;;;;;;;;;;5034641;28;20449;-76
2022/12/28 07:46:08;;;;;;;59.33;3.30;;;;;;;;;;5034786;28;20636;-76
2022/12/28 07:48:36;;;;;;;58.67;3.63;;;;;;;;;;5034404;28;20449;-76
2022/12/28 07:51:06;;;;;;;65.87;3.87;;;;;;;;;;5034868;28;20488;-76
2022/12/28 07:53:35;;;;;;;58.10;3.50;;;;;;;;;;5035308;28;20445;-76
2022/12/28 07:56:02;;;;;;;58.60;3.90;;;;;;;;;;5034911;28;20461;-76
2022/12/28 07:58:29;;;;;;;59.20;3.67;;;;;;;;;;5034972;28;20449;-76
2022/12/28 08:01:03;;;;;;;59.00;3.70;;;;;;;;;;5034315;28;21012;-76
2022/12/28 08:03:30;;;;;;;57.97;3.50;;;;;;;;;;5035137;28;20459;-77
2022/12/28 08:06:02;;;;;;;60.00;4.30;;;;;;;;;;5036169;28;20964;-77
2022/12/28 08:08:29;;;;;;;62.27;3.40;;;;;;;;;;5036066;28;20461;-76
2022/12/28 08:11:02;;;;;;;58.67;3.37;;;;;;;;;;5036154;28;21008;-76
2022/12/28 08:13:30;;;;;;;59.27;3.30;;;;;;;;;;5037093;28;20454;-77
2022/12/28 08:15:57;;;;;;;60.20;3.57;;;;;;;;;;5036661;28;20483;-77
2022/12/28 08:18:24;;;;;;;65.23;4.17;;;;;;;;;;5036715;28;20441;-77
2022/12/28 08:20:51;;;;;;;61.37;3.83;;;;;;;;;;5035945;28;20476;-77
2022/12/28 08:23:19;;;;;;;59.27;4.20;;;;;;;;;;5037030;28;20445;-77
2022/12/28 08:25:46;;;;;;;59.70;4.07;;;;;;;;;;5038078;28;20457;-77
2022/12/28 08:28:14;;;;;;;61.47;3.93;;;;;;;;;;5037463;28;20450;-77
2022/12/28 08:30:41;;;;;;;59.60;4.00;;;;;;;;;;5036730;28;20493;-77
2022/12/28 08:33:08;;;;;;;61.10;4.77;;;;;;;;;;5037233;28;20456;-77
2022/12/28 08:35:35;;;;;;;62.97;6.40;;;;;;;;;;5036608;28;20455;-77
2022/12/28 08:38:02;;;;;;;66.57;9.67;;;;;;;;;;5036017;28;20445;-77
2022/12/28 08:40:30;;;;;;;69.50;11.23;;;;;;;;;;5035874;28;20437;-76
2022/12/28 08:42:58;;;;;;;60.70;3.63;;;;;;;;;;5036454;28;20464;-77
2022/12/28 08:45:26;;;;;;;59.70;4.60;;;;;;;;;;5036519;28;20445;-77
2022/12/28 08:47:53;;;;;;;60.63;3.80;;;;;;;;;;5035900;28;20453;-77
2022/12/28 08:50:21;;;;;;;62.20;4.90;;;;;;;;;;5034707;28;20837;-76
2022/12/28 08:52:48;;;;;;;58.83;4.10;;;;;;;;;;5036309;28;20961;-77
2022/12/28 08:55:15;;;;;;;59.73;4.00;;;;;;;;;;5036280;28;20445;-76
2022/12/28 08:57:42;;;;;;;61.77;4.40;;;;;;;;;;5035725;28;20460;-77
2022/12/28 09:00:10;;;;;;;63.60;4.77;;;;;;;;;;5035582;28;20733;-77
2022/12/28 09:02:38;;;;;;;60.60;4.40;;;;;;;;;;5035837;28;20473;-77
2022/12/28 09:05:06;;;;;;;59.77;4.53;;;;;;;;;;5035992;28;20477;-77
2022/12/28 09:07:33;;;;;;;62.70;5.10;;;;;;;;;;5036194;28;20453;-77
2022/12/28 09:10:00;;;;;;;60.70;4.50;;;;;;;;;;5035166;28;20488;-76
2022/12/28 09:12:27;;;;;;;60.07;4.60;;;;;;;;;;5035566;28;20995;-77
2022/12/28 09:14:54;;;;;;;65.13;5.30;;;;;;;;;;5035797;28;20463;-76
2022/12/28 09:17:21;;;;;;;61.40;4.37;;;;;;;;;;5035617;28;20457;-77
2022/12/28 09:19:50;;;;;;;61.00;5.20;;;;;;;;;;5035588;28;20817;-77
2022/12/28 09:22:17;;;;;;;62.17;5.90;;;;;;;;;;5034949;28;20469;-77
2022/12/28 09:24:44;;;;;;;62.60;7.80;;;;;;;;;;5035459;28;20455;-76
2022/12/28 09:27:11;;;;;;;58.73;3.90;;;;;;;;;;5035331;28;20455;-77
2022/12/28 09:29:38;;;;;;;60.50;5.30;;;;;;;;;;5033969;28;20963;-76
2022/12/28 09:32:05;;;;;;;59.90;4.40;;;;;;;;;;5034381;28;20489;-77
2022/12/28 09:34:34;;;;;;;66.13;7.13;;;;;;;;;;5035584;28;20441;-77
2022/12/28 09:37:03;;;;;;;60.50;5.77;;;;;;;;;;5035197;28;20560;-76
2022/12/28 09:39:30;;;;;;;62.37;5.30;;;;;;;;;;5034717;28;20453;-77
2022/12/28 09:41:58;;;;;;;60.47;5.40;;;;;;;;;;5035198;28;20511;-77
2022/12/28 09:44:56;;;;;;;59.60;4.17;;;;;;;;;;5034948;28;20446;-77
2022/12/28 09:47:26;;;;;;;60.93;4.47;;;;;;;;;;4955120;29;20551;-77
2022/12/28 09:49:59;;;;;;;58.23;3.47;;;;;;;;;;5017996;28;20453;-77
2022/12/28 09:52:30;;;;;;;58.80;3.50;;;;;;;;;;5035350;28;20482;-77
2022/12/28 09:55:00;;;;;;;61.17;4.10;;;;;;;;;;5034911;28;20476;-77
2022/12/28 09:57:33;;;;;;;59.30;3.43;;;;;;;;;;5035042;28;20825;-77
2022/12/28 10:00:00;;;;;;;61.40;3.63;;;;;;;;;;5034638;28;20498;-77
2022/12/28 10:02:30;;;;;;;58.60;4.10;;;;;;;;;;5035220;28;20475;-77
2022/12/28 10:04:57;;;;;;;59.33;3.80;;;;;;;;;;5035129;28;20835;-77
2022/12/28 10:07:24;;;;;;;58.77;3.30;;;;;;;;;;5035651;28;20450;-77
2022/12/28 10:09:53;;;;;;;59.57;3.67;;;;;;;;;;5034762;28;20449;-77
2022/12/28 10:12:23;;;;;;;59.80;4.23;;;;;;;;;;5035169;28;20515;-77
2022/12/28 10:14:50;;;;;;;57.70;3.33;;;;;;;;;;5035260;28;20461;-77
2022/12/28 10:17:18;;;;;;;61.60;5.17;;;;;;;;;;5035448;28;20455;-77
2022/12/28 10:19:46;;;;;;;60.03;4.00;;;;;;;;;;5034529;28;20449;-77
2022/12/28 10:22:15;;;;;;;59.07;3.47;;;;;;;;;;5035253;28;21150;-77
2022/12/28 10:24:43;;;;;;;58.30;3.37;;;;;;;;;;5035843;28;20512;-77
2022/12/28 10:27:13;;;;;;;58.40;3.67;;;;;;;;;;5035124;28;20453;-77
2022/12/28 10:29:42;;;;;;;59.97;3.70;;;;;;;;;;5034240;28;20459;-77
2022/12/28 10:32:11;;;;;;;59.00;4.03;;;;;;;;;;5035060;28;20489;-77
2022/12/28 10:34:45;;;;;;;59.33;3.53;;;;;;;;;;5035326;28;20453;-77
2022/12/28 10:37:15;;;;;;;59.47;3.87;;;;;;;;;;5035793;28;20448;-77
2022/12/28 10:39:48;;;;;;;58.27;3.70;;;;;;;;;;5033249;28;20835;-77
2022/12/28 10:42:21;;;;;;;59.90;3.30;;;;;;;;;;5035795;28;20997;-77
2022/12/28 10:44:49;;;;;;;59.70;4.10;;;;;;;;;;5035772;28;20453;-77
2022/12/28 10:47:17;;;;;;;58.57;3.70;;;;;;;;;;5035367;28;20502;-77
2022/12/28 10:49:49;;;;;;;58.30;3.80;;;;;;;;;;5034656;28;20461;-77
2022/12/28 10:52:19;;;;;;;59.33;3.40;;;;;;;;;;5035429;28;20679;-77
2022/12/28 10:54:47;;;;;;;60.17;4.20;;;;;;;;;;5035034;28;20964;-77
2022/12/28 10:57:17;;;;;;;59.67;3.87;;;;;;;;;;5036313;28;20448;-77
2022/12/28 10:59:48;;;;;;;59.80;4.03;;;;;;;;;;5035302;28;20463;-77
2022/12/28 11:02:23;;;;;;;60.40;3.63;;;;;;;;;;5035951;28;20504;-77
2022/12/28 11:04:54;;;;;;;60.47;3.60;;;;;;;;;;5037506;28;20452;-77
2022/12/28 11:07:27;;;;;;;59.77;4.00;;;;;;;;;;5035358;28;20524;-77
2022/12/28 11:09:54;;;;;;;59.40;3.77;;;;;;;;;;5034289;28;20941;-77
2022/12/28 11:12:23;;;;;;;61.47;4.07;;;;;;;;;;5035337;28;20495;-77
2022/12/28 11:14:53;;;;;;;61.00;4.20;;;;;;;;;;5034918;28;20950;-77
2022/12/28 11:17:21;;;;;;;60.90;4.00;;;;;;;;;;5034630;28;20453;-76
2022/12/28 11:19:50;;;;;;;60.50;4.33;;;;;;;;;;5033310;28;20472;-77
2022/12/28 11:22:19;;;;;;;59.73;4.20;;;;;;;;;;5037303;28;20828;-77
2022/12/28 11:24:46;;;;;;;59.30;4.10;;;;;;;;;;5037556;28;20987;-77
2022/12/28 11:27:14;;;;;;;60.57;4.17;;;;;;;;;;5035969;28;20447;-77
2022/12/28 11:29:43;;;;;;;59.77;3.90;;;;;;;;;;5034074;28;20452;-77
2022/12/28 11:32:16;;;;;;;59.20;3.80;;;;;;;;;;5034479;28;21011;-77
2022/12/28 11:34:44;;;;;;;60.00;4.00;;;;;;;;;;5035762;28;20448;-77
2022/12/28 11:37:13;;;;;;;61.70;5.07;;;;;;;;;;5036247;28;20453;-77
2022/12/28 11:39:45;;;;;;;58.47;3.90;;;;;;;;;;5035889;28;20453;-77
2022/12/28 11:42:12;;;;;;;59.57;4.30;;;;;;;;;;5036545;28;20986;-77
2022/12/28 11:44:51;;;;;;;58.50;4.13;;;;;;;;;;5036687;28;20445;-77
2022/12/28 11:47:29;;;;;;;58.20;3.70;;;;;;;;;;5036025;28;20540;-77
2022/12/28 11:50:17;;;;;;;59.73;3.93;;;;;;;;;;5036041;28;20802;-77
2022/12/28 11:52:47;;;;;;;58.90;3.40;;;;;;;;;;5035599;28;20488;-77
2022/12/28 11:55:38;;;;;;;59.63;4.00;;;;;;;;;;5035584;28;20837;-76
2022/12/28 11:58:24;;;;;;;60.00;3.60;;;;;;;;;;5015414;28;20461;-76
2022/12/28 12:00:51;;;;;;;60.23;3.47;;;;;;;;;;5034961;28;20483;-77
2022/12/28 12:03:19;;;;;;;58.50;3.40;;;;;;;;;;5034971;28;20449;-76
2022/12/28 12:05:53;;;;;;;58.50;3.00;;;;;;;;;;5037649;28;20445;-75
2022/12/28 12:08:39;;;;;;;58.87;3.10;;;;;;;;;;5037884;28;20473;-75
2022/12/28 12:11:31;;;;;;;60.83;3.27;;;;;;;;;;5037787;28;20922;-75
2022/12/28 12:13:59;;;;;;;59.00;2.93;;;;;;;;;;5037720;28;20471;-75
2022/12/28 12:16:29;;;;;;;59.53;3.60;;;;;;;;;;5037973;28;20453;-75
2022/12/28 12:18:59;;;;;;;58.90;3.40;;;;;;;;;;5039192;28;20441;-76
2022/12/28 12:21:34;;;;;;;59.47;3.70;;;;;;;;;;5038963;28;20918;-76
2022/12/28 12:24:04;;;;;;;59.53;4.20;;;;;;;;;;5039047;28;20957;-76
2022/12/28 12:26:36;;;;;;;58.33;3.70;;;;;;;;;;5039007;28;20457;-76
2022/12/28 12:29:05;;;;;;;59.90;4.40;;;;;;;;;;5037813;28;20460;-76
2022/12/28 12:31:34;;;;;;;60.47;4.13;;;;;;;;;;5038356;28;20493;-76
2022/12/28 12:34:08;;;;;;;59.80;4.10;;;;;;;;;;5037833;28;20449;-76
2022/12/28 12:36:50;;;;;;;59.10;4.30;;;;;;;;;;5039085;28;20536;-76
2022/12/28 12:39:26;;;;;;;60.47;4.30;;;;;;;;;;5038214;28;20463;-76
2022/12/28 12:41:59;;;;;;;59.47;4.30;;;;;;;;;;5037518;28;20978;-78
2022/12/28 12:44:33;;;;;;;59.70;4.20;;;;;;;;;;5034400;28;20453;-76
2022/12/28 12:47:20;;;;;;;62.97;4.57;;;;;;;;;;5036395;28;20461;-75
2022/12/28 12:50:18;;;;;;;59.63;3.80;;;;;;;;;;5034094;28;20974;-75
2022/12/28 12:52:54;;;;;;;59.90;4.50;;;;;;;;;;4953271;29;20492;-76
2022/12/28 12:55:24;;;;;;;62.23;4.40;;;;;;;;;;5019292;28;20471;-76
2022/12/28 12:57:56;;;;;;;60.40;4.43;;;;;;;;;;5033172;28;20540;-76
2022/12/28 13:00:24;;;;;;;61.00;5.23;;;;;;;;;;5032257;28;20452;-76
2022/12/28 13:03:09;;;;;;;62.97;5.43;;;;;;;;;;5033212;28;20442;-76
2022/12/28 13:05:39;;;;;;;59.83;4.43;;;;;;;;;;5033149;28;20455;-76
2022/12/28 13:08:07;;;;;;;59.93;4.40;;;;;;;;;;5033043;28;20822;-76
2022/12/28 13:10:35;;;;;;;59.80;3.73;;;;;;;;;;5032140;28;20909;-75
2022/12/28 13:13:03;;;;;;;59.77;4.10;;;;;;;;;;5033311;28;20584;-75
2022/12/28 13:15:31;;;;;;;60.33;3.83;;;;;;;;;;5033003;28;20446;-75
2022/12/28 13:18:02;;;;;;;58.93;3.90;;;;;;;;;;5033194;28;20475;-75
2022/12/28 13:20:29;;;;;;;60.17;3.63;;;;;;;;;;5033091;28;20451;-75
2022/12/28 13:22:57;;;;;;;59.00;4.60;;;;;;;;;;5033570;28;20950;-75
2022/12/28 13:25:26;;;;;;;62.07;5.17;;;;;;;;;;5033523;28;20448;-75
2022/12/28 13:27:54;;;;;;;63.37;6.60;;;;;;;;;;5033495;28;20449;-75
2022/12/28 13:30:22;;;;;;;61.67;5.70;;;;;;;;;;5032970;28;20452;-75
2022/12/28 13:32:51;;;;;;;59.90;4.77;;;;;;;;;;5033966;28;21027;-75
2022/12/28 13:35:19;;;;;;;58.90;3.80;;;;;;;;;;5033658;28;20847;-75
2022/12/28 13:37:58;;;;;;;59.97;4.87;;;;;;;;;;5033156;28;20449;-75
2022/12/28 13:40:27;;;;;;;65.87;9.00;;;;;;;;;;5032753;28;20457;-75
2022/12/28 13:43:00;;;;;;;60.67;5.17;;;;;;;;;;5032390;28;20938;-76
2022/12/28 13:45:27;;;;;;;59.87;4.97;;;;;;;;;;5032090;28;20457;-76
2022/12/28 13:47:55;;;;;;;66.93;5.17;;;;;;;;;;5032226;28;20459;-76
2022/12/28 13:50:24;;;;;;;61.17;3.97;;;;;;;;;;5031171;28;20817;-77
2022/12/28 13:52:52;;;;;;;59.70;4.10;;;;;;;;;;5031992;28;20491;-76
2022/12/28 13:55:23;;;;;;;58.17;3.53;;;;;;;;;;5032168;28;20449;-76
2022/12/28 13:57:53;;;;;;;59.27;3.80;;;;;;;;;;5033334;28;20451;-77
2022/12/28 14:00:21;;;;;;;59.40;3.80;;;;;;;;;;5033259;28;20457;-77
2022/12/28 14:02:49;;;;;;;61.20;4.90;;;;;;;;;;5034145;28;20441;-77
2022/12/28 14:05:17;;;;;;;60.10;3.80;;;;;;;;;;5034176;28;20444;-77
2022/12/28 14:07:45;;;;;;;60.70;5.60;;;;;;;;;;5033608;28;20457;-76
2022/12/28 14:10:12;;;;;;;66.10;6.70;;;;;;;;;;5032736;28;20451;-77
2022/12/28 14:12:39;;;;;;;69.90;10.47;;;;;;;;;;5033085;28;20493;-77
2022/12/28 14:15:09;;;;;;;61.80;6.10;;;;;;;;;;5033490;28;20463;-76
2022/12/28 14:17:38;;;;;;;60.97;5.33;;;;;;;;;;5033171;28;20835;-77
2022/12/28 14:20:05;;;;;;;63.67;5.70;;;;;;;;;;5032878;28;20448;-77
2022/12/28 14:22:33;;;;;;;63.30;5.70;;;;;;;;;;5033003;28;20552;-76
2022/12/28 14:25:06;;;;;;;59.60;4.30;;;;;;;;;;5032936;28;20975;-76
2022/12/28 14:27:34;;;;;;;61.77;6.20;;;;;;;;;;5033408;28;20460;-77
2022/12/28 14:30:02;;;;;;;62.87;7.97;;;;;;;;;;5031898;28;20453;-77
2022/12/28 14:32:30;;;;;;;59.27;4.83;;;;;;;;;;5032682;28;20485;-77
2022/12/28 14:34:58;;;;;;;59.27;3.33;;;;;;;;;;5033105;28;20453;-77
2022/12/28 14:37:26;;;;;;;58.70;3.43;;;;;;;;;;5033534;28;20453;-76
2022/12/28 14:39:58;;;;;;;60.00;3.50;;;;;;;;;;5032638;28;20832;-77
2022/12/28 14:42:25;;;;;;;59.90;4.13;;;;;;;;;;5032963;28;20465;-76
2022/12/28 14:44:53;;;;;;;58.87;3.87;;;;;;;;;;5033540;28;20455;-76
2022/12/28 14:47:34;;;;;;;59.63;4.33;;;;;;;;;;5033803;28;20445;-76
2022/12/28 14:50:04;;;;;;;58.90;3.87;;;;;;;;;;5029292;28;20464;-77
2022/12/28 14:52:35;;;;;;;60.17;4.40;;;;;;;;;;5032837;28;20481;-76
2022/12/28 14:55:19;;;;;;;59.17;3.73;;;;;;;;;;5033318;28;20446;-77
2022/12/28 14:57:47;;;;;;;59.83;3.97;;;;;;;;;;5037148;28;20453;-77
2022/12/28 15:00:22;;;;;;;60.17;4.40;;;;;;;;;;5035962;28;20449;-77
2022/12/28 15:02:50;;;;;;;61.40;4.40;;;;;;;;;;5035998;28;20856;-77
2022/12/28 15:05:39;;;;;;;59.57;3.90;;;;;;;;;;5035989;28;20468;-76
2022/12/28 15:08:06;;;;;;;60.03;4.60;;;;;;;;;;5035968;28;20975;-77